Terminal Aerodrome Forecast
Issued by NWS

Home | Current Version | Previous Version | Graphics & Text | Print | Product List | Glossary Off
Versions: 1 2 3 4 5 6 7 8 9 10 11 12 13

000
FTUS43 KDDC 280520
TAFHYS
TAF
KHYS 280520Z 2806/2906 24004KT P6SM SKC
     FM280900 30006KT P6SM SKC
     FM281100 34007KT P6SM SKC
     FM281300 01008KT P6SM SKC
     FM282300 05009KT P6SM SKC
     FM290300 07005KT P6SM SKC=

USA.gov is the U.S. government's official web portal to all federal, state and local government web resources and services.